Time;durP1;ratioP1;P1;durP2;ratioP2;P2;SDS_P1;SDS_P2;PMS_P1;PMS_P2;Temp;Humidity;BMP_temperature;BMP_pressure;BME280_temperature;BME280_humidity;BME280_pressure;Samples;Min_cycle;Max_cycle;Signal;HPM_P1;HPM_P2
2021/07/13 00:01:14;;;;;;;15.70;14.70;;;21.30;99.90;;;;;;5013666;28;20441;-64
2021/07/13 00:03:40;;;;;;;16.87;15.97;;;21.30;99.90;;;;;;5013829;28;20450;-64
2021/07/13 00:06:07;;;;;;;16.43;14.83;;;21.20;99.90;;;;;;5013568;28;20462;-65
2021/07/13 00:08:35;;;;;;;15.80;14.90;;;21.20;99.90;;;;;;5013616;28;20477;-64
2021/07/13 00:11:02;;;;;;;16.10;15.20;;;21.20;99.90;;;;;;5013580;28;20861;-63
2021/07/13 00:13:29;;;;;;;16.60;15.60;;;21.20;99.90;;;;;;5013695;28;20449;-64
2021/07/13 00:15:55;;;;;;;15.70;14.60;;;21.20;99.90;;;;;;5013535;28;20446;-64
2021/07/13 00:18:22;;;;;;;15.67;14.87;;;21.20;99.90;;;;;;5013452;28;20453;-64
2021/07/13 00:20:49;;;;;;;15.83;14.93;;;21.10;99.90;;;;;;5013556;28;20450;-64
2021/07/13 00:23:16;;;;;;;15.80;14.67;;;21.10;99.90;;;;;;5013096;28;20524;-64
2021/07/13 00:25:44;;;;;;;15.60;14.70;;;21.10;99.90;;;;;;5013323;28;20449;-64
2021/07/13 00:28:10;;;;;;;15.70;14.70;;;21.10;99.90;;;;;;5038063;22;20489;-67
2021/07/13 00:30:37;;;;;;;17.80;16.33;;;21.00;99.90;;;;;;5013266;28;20434;-67
2021/07/13 00:33:04;;;;;;;15.40;14.50;;;21.00;99.90;;;;;;5013015;28;20994;-67
2021/07/13 00:35:31;;;;;;;15.20;14.30;;;20.90;99.90;;;;;;5013329;28;20450;-67
2021/07/13 00:37:57;;;;;;;14.90;14.10;;;20.90;99.90;;;;;;5013089;28;20457;-67
2021/07/13 00:40:24;;;;;;;15.57;14.33;;;20.90;99.90;;;;;;5013174;28;20446;-67
2021/07/13 00:42:54;;;;;;;17.17;15.90;;;20.80;99.90;;;;;;5012960;28;20450;-67
2021/07/13 00:45:21;;;;;;;17.70;16.50;;;20.80;99.90;;;;;;5013114;28;20778;-67
2021/07/13 00:47:50;;;;;;;17.13;16.13;;;20.80;99.90;;;;;;5012806;28;20489;-67
2021/07/13 00:50:19;;;;;;;18.80;17.37;;;20.70;99.90;;;;;;5012904;28;20475;-67
2021/07/13 00:52:46;;;;;;;17.03;15.93;;;20.70;99.90;;;;;;5012423;28;20446;-67
2021/07/13 00:55:13;;;;;;;19.33;17.97;;;20.60;99.90;;;;;;5013035;28;20453;-67
2021/07/13 00:57:40;;;;;;;18.87;17.43;;;20.60;99.90;;;;;;5012675;28;20466;-67
2021/07/13 01:00:12;;;;;;;20.83;18.93;;;20.60;99.90;;;;;;5012814;28;20446;-67
2021/07/13 01:02:39;;;;;;;19.00;17.57;;;20.50;99.90;;;;;;5012516;28;20449;-67
2021/07/13 01:05:10;;;;;;;20.10;18.50;;;20.40;99.90;;;;;;5012595;28;20457;-67
2021/07/13 01:07:45;;;;;;;20.90;19.20;;;20.30;99.90;;;;;;5012423;28;20840;-67
2021/07/13 01:10:17;;;;;;;21.53;19.93;;;20.20;99.90;;;;;;5012600;28;20449;-67
2021/07/13 01:12:56;;;;;;;24.37;22.13;;;20.20;99.90;;;;;;5012477;28;20441;-67
2021/07/13 01:15:28;;;;;;;21.13;19.53;;;20.10;99.90;;;;;;5012507;28;20458;-67
2021/07/13 01:17:59;;;;;;;22.80;20.80;;;20.10;99.90;;;;;;5012528;28;20473;-66
2021/07/13 01:21:15;;;;;;;21.33;19.53;;;20.00;99.90;;;;;;5012659;28;20439;-67
2021/07/13 01:23:54;;;;;;;23.93;21.60;;;19.90;99.90;;;;;;4951790;29;20449;-67
2021/07/13 01:26:35;;;;;;;20.63;18.80;;;19.90;99.90;;;;;;5010563;28;20477;-67
2021/07/13 01:29:09;;;;;;;24.63;22.33;;;19.80;99.90;;;;;;5012356;28;20489;-67
2021/07/13 01:31:37;;;;;;;22.13;20.13;;;19.80;99.90;;;;;;5012030;28;20450;-67
2021/07/13 01:34:09;;;;;;;23.23;21.43;;;19.80;99.90;;;;;;5012213;28;20504;-67
2021/07/13 01:36:42;;;;;;;23.73;21.53;;;19.80;99.90;;;;;;5012127;28;20476;-67
2021/07/13 01:39:09;;;;;;;26.23;23.73;;;19.80;99.90;;;;;;5012211;28;20449;-67
2021/07/13 01:41:37;;;;;;;25.83;23.30;;;19.70;99.90;;;;;;5011957;28;20808;-66
2021/07/13 01:44:06;;;;;;;30.83;27.77;;;19.70;99.90;;;;;;5012059;28;20457;-67
2021/07/13 01:46:33;;;;;;;33.67;29.97;;;19.50;99.90;;;;;;5011911;28;20701;-67
2021/07/13 01:49:01;;;;;;;34.17;30.70;;;19.40;99.90;;;;;;5012084;28;20477;-67
2021/07/13 01:51:30;;;;;;;35.80;30.40;;;19.40;99.90;;;;;;5011955;28;20445;-67
2021/07/13 01:54:04;;;;;;;32.60;26.80;;;19.40;99.90;;;;;;5011906;28;20450;-67
2021/07/13 01:56:31;;;;;;;33.50;29.80;;;19.30;99.90;;;;;;5011855;28;20477;-67
2021/07/13 01:58:59;;;;;;;31.23;27.90;;;19.20;99.90;;;;;;5011900;28;20438;-67
2021/07/13 02:01:29;;;;;;;35.50;31.20;;;19.10;99.90;;;;;;5011946;28;20919;-67
2021/07/13 02:03:56;;;;;;;31.80;26.63;;;19.10;99.90;;;;;;5011243;28;20450;-67
2021/07/13 02:06:25;;;;;;;31.37;25.73;;;19.00;99.90;;;;;;5011603;28;20478;-67
2021/07/13 02:08:54;;;;;;;29.47;26.27;;;19.00;99.90;;;;;;5011753;28;20887;-67
2021/07/13 02:11:21;;;;;;;35.67;29.80;;;18.90;99.90;;;;;;5011604;28;20923;-67
2021/07/13 02:13:48;;;;;;;31.53;26.10;;;18.90;99.90;;;;;;5011616;28;20814;-67
2021/07/13 02:16:15;;;;;;;33.47;29.87;;;18.80;99.90;;;;;;5011794;28;20441;-67
2021/07/13 02:18:43;;;;;;;35.53;29.87;;;18.80;99.90;;;;;;5011811;28;20442;-67
2021/07/13 02:21:10;;;;;;;35.80;31.10;;;18.90;99.90;;;;;;5011502;28;20477;-67
2021/07/13 02:23:37;;;;;;;38.50;29.50;;;18.90;99.90;;;;;;5011737;28;20997;-67
2021/07/13 02:26:05;;;;;;;35.73;29.43;;;18.90;99.90;;;;;;5011580;28;20469;-67
2021/07/13 02:28:36;;;;;;;35.17;29.33;;;18.80;99.90;;;;;;5011719;28;20906;-67
2021/07/13 02:31:12;;;;;;;30.73;27.30;;;18.80;99.90;;;;;;5011477;28;20445;-67
2021/07/13 02:33:47;;;;;;;30.60;26.80;;;18.80;99.90;;;;;;5011640;28;20446;-67
2021/07/13 02:36:18;;;;;;;34.10;29.70;;;18.80;99.90;;;;;;5011430;28;20823;-67
2021/07/13 02:38:46;;;;;;;38.03;31.27;;;18.80;99.90;;;;;;5011550;28;20508;-67
2021/07/13 02:41:14;;;;;;;34.73;29.80;;;18.80;99.90;;;;;;5011393;28;20453;-67
2021/07/13 02:43:41;;;;;;;32.07;27.00;;;18.80;99.90;;;;;;5011392;28;20442;-67
2021/07/13 02:46:08;;;;;;;30.33;27.13;;;18.80;99.90;;;;;;5011462;28;20445;-67
2021/07/13 02:48:37;;;;;;;30.70;27.10;;;18.80;99.90;;;;;;5011451;28;20484;-67
2021/07/13 02:51:06;;;;;;;28.57;25.77;;;18.80;99.90;;;;;;5011249;28;20442;-67
2021/07/13 02:53:34;;;;;;;26.27;23.30;;;18.70;99.90;;;;;;5011352;28;20453;-67
2021/07/13 02:56:02;;;;;;;26.27;23.60;;;18.70;99.90;;;;;;5011305;28;20453;-67
2021/07/13 02:58:29;;;;;;;27.90;24.90;;;18.70;99.90;;;;;;5011284;28;20445;-67
2021/07/13 03:00:57;;;;;;;25.80;23.07;;;18.60;99.90;;;;;;5011356;28;20452;-67
2021/07/13 03:03:24;;;;;;;23.73;21.37;;;18.60;99.90;;;;;;5011143;28;20449;-67
2021/07/13 03:05:53;;;;;;;24.90;22.40;;;18.60;99.90;;;;;;5011462;28;20460;-67
2021/07/13 03:08:22;;;;;;;23.90;21.70;;;18.60;99.90;;;;;;5011075;28;20461;-67
2021/07/13 03:10:50;;;;;;;26.43;23.53;;;18.60;99.90;;;;;;5011217;28;20951;-67
2021/07/13 03:13:20;;;;;;;24.30;21.83;;;18.60;99.90;;;;;;5011096;28;20450;-67
2021/07/13 03:15:49;;;;;;;21.20;19.23;;;18.60;99.90;;;;;;5012713;28;20445;-67
2021/07/13 03:18:16;;;;;;;19.17;17.60;;;18.60;99.90;;;;;;5014666;28;20461;-67
2021/07/13 03:20:46;;;;;;;19.33;17.47;;;18.60;99.90;;;;;;5014692;28;20452;-67
2021/07/13 03:23:14;;;;;;;19.60;17.63;;;18.60;99.90;;;;;;5014423;28;20445;-67
2021/07/13 03:25:43;;;;;;;20.63;18.63;;;18.70;99.90;;;;;;5014582;28;20449;-67
2021/07/13 03:28:11;;;;;;;21.83;19.80;;;18.70;99.90;;;;;;5014578;28;20493;-67
2021/07/13 03:30:39;;;;;;;20.67;18.77;;;18.70;99.90;;;;;;5014415;28;20453;-67
2021/07/13 03:33:07;;;;;;;20.40;18.60;;;18.70;99.90;;;;;;5014070;28;20958;-67
2021/07/13 03:35:34;;;;;;;23.30;21.03;;;18.70;99.90;;;;;;5014383;28;20452;-67
2021/07/13 03:38:02;;;;;;;23.07;20.97;;;18.70;99.90;;;;;;5014304;28;20466;-67
2021/07/13 03:40:29;;;;;;;23.97;21.67;;;18.80;99.90;;;;;;5014233;28;20446;-67
2021/07/13 03:42:58;;;;;;;28.87;21.80;;;18.80;99.90;;;;;;5013954;28;20943;-67
2021/07/13 03:45:28;;;;;;;25.03;22.50;;;18.80;99.90;;;;;;5014203;28;20448;-67
2021/07/13 03:47:57;;;;;;;25.23;22.83;;;18.80;99.90;;;;;;5014005;28;20480;-67
2021/07/13 03:50:25;;;;;;;26.30;23.67;;;18.80;99.90;;;;;;5013930;28;20481;-67
2021/07/13 03:52:52;;;;;;;26.37;23.57;;;18.80;99.90;;;;;;5013881;28;20449;-67
2021/07/13 03:55:19;;;;;;;26.93;22.57;;;18.80;99.90;;;;;;5014122;28;20842;-67
2021/07/13 03:57:46;;;;;;;27.50;23.67;;;18.70;99.90;;;;;;5013846;28;20466;-67
2021/07/13 04:00:16;;;;;;;27.03;24.33;;;18.70;99.90;;;;;;5013925;28;20442;-67
2021/07/13 04:02:44;;;;;;;28.70;25.73;;;18.70;99.90;;;;;;5013563;28;20449;-67
2021/07/13 04:05:12;;;;;;;28.80;25.70;;;18.70;99.90;;;;;;5013821;28;20442;-67
2021/07/13 04:07:39;;;;;;;26.47;23.77;;;18.70;99.90;;;;;;5013620;28;20465;-67
2021/07/13 04:10:08;;;;;;;27.83;25.03;;;18.70;99.90;;;;;;5013666;28;20482;-67
2021/07/13 04:12:35;;;;;;;29.60;26.50;;;18.70;99.90;;;;;;5013459;28;20442;-66
2021/07/13 04:15:02;;;;;;;28.73;25.70;;;18.70;99.90;;;;;;5013558;28;21054;-66
2021/07/13 04:17:30;;;;;;;31.47;28.10;;;18.70;99.90;;;;;;5013486;28;20465;-66
2021/07/13 04:19:56;;;;;;;29.63;25.20;;;18.70;99.90;;;;;;5013488;28;20446;-67
2021/07/13 04:22:23;;;;;;;30.17;25.83;;;18.70;99.90;;;;;;5013351;28;20483;-67
2021/07/13 04:24:50;;;;;;;34.97;27.87;;;18.70;99.90;;;;;;5013453;28;20457;-67
2021/07/13 04:27:17;;;;;;;32.33;28.40;;;18.70;99.90;;;;;;5012735;28;20481;-66
2021/07/13 04:29:43;;;;;;;30.30;26.93;;;18.70;99.90;;;;;;5013264;28;20484;-66
2021/07/13 04:32:10;;;;;;;32.10;28.37;;;18.70;99.90;;;;;;5012904;28;20468;-66
2021/07/13 04:34:38;;;;;;;33.77;29.37;;;18.70;99.90;;;;;;5013169;28;20804;-66
2021/07/13 04:37:05;;;;;;;31.77;28.23;;;18.70;99.90;;;;;;5013451;28;20473;-66
2021/07/13 04:39:31;;;;;;;33.30;29.80;;;18.70;99.90;;;;;;5013450;28;20799;-66
2021/07/13 04:41:58;;;;;;;30.13;26.93;;;18.80;99.90;;;;;;5012922;28;20446;-66
2021/07/13 04:44:25;;;;;;;30.63;27.33;;;18.80;99.90;;;;;;5013008;28;20932;-66
2021/07/13 04:46:54;;;;;;;29.60;26.40;;;18.80;99.90;;;;;;5012970;28;20466;-66
2021/07/13 04:49:21;;;;;;;34.37;27.97;;;18.70;99.90;;;;;;5013019;28;20536;-66
2021/07/13 04:51:49;;;;;;;29.27;26.10;;;18.80;99.90;;;;;;5012813;28;20874;-66
2021/07/13 04:54:16;;;;;;;31.37;26.80;;;18.80;99.90;;;;;;5013044;28;20441;-66
2021/07/13 04:56:42;;;;;;;31.10;25.90;;;18.80;99.90;;;;;;5012704;28;20470;-66
2021/07/13 04:59:09;;;;;;;29.57;26.47;;;18.80;99.90;;;;;;5012841;28;20438;-66
2021/07/13 05:01:36;;;;;;;34.73;27.53;;;18.90;99.90;;;;;;5012403;28;20446;-66
2021/07/13 05:04:03;;;;;;;30.50;27.30;;;18.90;99.90;;;;;;5012759;28;20445;-66
2021/07/13 05:06:29;;;;;;;31.47;27.83;;;18.90;99.90;;;;;;5012585;28;20474;-67
2021/07/13 05:08:57;;;;;;;29.17;26.13;;;18.80;99.90;;;;;;5012475;28;20477;-66
2021/07/13 05:11:24;;;;;;;28.90;25.90;;;18.80;99.90;;;;;;5012374;28;20958;-66
2021/07/13 05:13:51;;;;;;;27.83;24.93;;;18.80;99.90;;;;;;5012549;28;21150;-66
2021/07/13 05:16:17;;;;;;;26.87;24.07;;;18.70;99.90;;;;;;5012370;28;20962;-67
2021/07/13 05:18:44;;;;;;;24.03;21.73;;;18.80;99.90;;;;;;5012504;28;20928;-66
2021/07/13 05:21:12;;;;;;;21.30;19.10;;;18.70;99.90;;;;;;5012561;28;20454;-68
2021/07/13 05:23:39;;;;;;;21.00;18.90;;;18.70;99.90;;;;;;5012177;28;20453;-67
2021/07/13 05:26:07;;;;;;;21.73;19.73;;;18.70;99.90;;;;;;5012062;28;20928;-66
2021/07/13 05:28:34;;;;;;;18.97;17.27;;;18.70;99.90;;;;;;5012308;28;20860;-66
2021/07/13 05:31:01;;;;;;;19.07;17.57;;;18.80;99.90;;;;;;5012014;28;20478;-66
2021/07/13 05:33:28;;;;;;;21.80;20.07;;;18.80;99.90;;;;;;5012126;28;20446;-68
2021/07/13 05:35:55;;;;;;;18.50;17.00;;;18.80;99.90;;;;;;5012417;28;21006;-68
2021/07/13 05:38:21;;;;;;;18.60;17.10;;;18.80;99.90;;;;;;5011617;28;20473;-66
2021/07/13 05:40:48;;;;;;;15.37;14.27;;;18.90;99.90;;;;;;5011779;28;20461;-66
2021/07/13 05:43:17;;;;;;;15.10;14.00;;;18.80;99.90;;;;;;5011956;28;20493;-66
2021/07/13 05:45:45;;;;;;;15.10;14.00;;;18.80;99.90;;;;;;5011912;28;20442;-66
2021/07/13 05:48:12;;;;;;;16.03;14.73;;;18.80;99.90;;;;;;5012067;28;20462;-66
2021/07/13 05:50:39;;;;;;;16.03;14.70;;;18.80;99.90;;;;;;5011896;28;20825;-66
2021/07/13 05:53:06;;;;;;;16.13;14.97;;;18.80;99.90;;;;;;5011796;28;20449;-66
2021/07/13 05:55:32;;;;;;;17.43;15.70;;;18.80;99.90;;;;;;5011965;28;20445;-66
2021/07/13 05:57:59;;;;;;;13.90;12.97;;;18.90;99.90;;;;;;5011759;28;20465;-66
2021/07/13 06:00:27;;;;;;;14.70;13.70;;;18.90;99.90;;;;;;5011963;28;20441;-66
2021/07/13 06:02:54;;;;;;;15.60;14.33;;;18.90;99.90;;;;;;5011970;28;20802;-66
2021/07/13 06:05:21;;;;;;;15.03;14.13;;;18.90;99.90;;;;;;5011950;28;20935;-66
2021/07/13 06:07:49;;;;;;;17.00;15.90;;;18.80;99.90;;;;;;5011851;28;20898;-66
2021/07/13 06:10:16;;;;;;;18.50;16.30;;;18.80;99.90;;;;;;5011635;28;20842;-66
2021/07/13 06:12:43;;;;;;;16.37;15.07;;;18.80;99.90;;;;;;5011499;28;20446;-66
2021/07/13 06:15:11;;;;;;;15.40;14.40;;;18.90;99.90;;;;;;5011687;28;20453;-66
2021/07/13 06:17:40;;;;;;;17.00;15.40;;;19.00;99.90;;;;;;5011560;28;20461;-66
2021/07/13 06:20:08;;;;;;;16.10;14.50;;;19.10;99.90;;;;;;5011657;28;20811;-66
2021/07/13 06:22:35;;;;;;;16.33;15.13;;;19.10;99.90;;;;;;5011391;28;20492;-66
2021/07/13 06:25:01;;;;;;;15.13;14.00;;;19.10;99.90;;;;;;5011614;28;20468;-66
2021/07/13 06:27:28;;;;;;;15.23;13.83;;;19.10;99.90;;;;;;5035242;22;20500;-67
2021/07/13 06:29:55;;;;;;;16.37;15.00;;;19.10;99.90;;;;;;5011461;28;20492;-67
2021/07/13 06:32:22;;;;;;;14.97;13.87;;;19.20;99.90;;;;;;5011477;28;20935;-67
2021/07/13 06:34:50;;;;;;;16.17;15.13;;;19.10;99.90;;;;;;5011615;28;20919;-68
2021/07/13 06:37:16;;;;;;;16.13;15.13;;;19.10;99.90;;;;;;5011497;28;20465;-67
2021/07/13 06:39:43;;;;;;;15.87;14.77;;;19.00;99.90;;;;;;5011549;28;20469;-67
2021/07/13 06:42:10;;;;;;;15.80;14.63;;;19.00;99.90;;;;;;5011329;28;20446;-67
2021/07/13 06:44:36;;;;;;;15.77;14.67;;;19.00;99.90;;;;;;5011430;28;20458;-67
2021/07/13 06:47:04;;;;;;;16.30;15.13;;;19.00;99.90;;;;;;5011329;28;20838;-67
2021/07/13 06:49:30;;;;;;;15.63;14.57;;;18.90;99.90;;;;;;5011346;28;20473;-67
2021/07/13 06:51:59;;;;;;;16.87;15.57;;;19.00;99.90;;;;;;5014455;28;20445;-67
2021/07/13 06:54:25;;;;;;;16.43;15.33;;;19.00;99.90;;;;;;5015244;28;20453;-67
2021/07/13 06:56:53;;;;;;;17.67;16.37;;;19.00;99.90;;;;;;5015271;28;20461;-67
2021/07/13 06:59:20;;;;;;;17.30;15.80;;;19.00;99.90;;;;;;5014939;28;20453;-67
2021/07/13 07:01:46;;;;;;;18.93;17.53;;;19.10;99.90;;;;;;5014690;28;20458;-67
2021/07/13 07:04:13;;;;;;;17.67;16.27;;;19.10;99.90;;;;;;5014866;28;20441;-67
2021/07/13 07:06:40;;;;;;;18.80;17.10;;;19.10;99.90;;;;;;5014753;28;20993;-67
2021/07/13 07:09:08;;;;;;;18.20;16.80;;;19.10;99.90;;;;;;5014752;28;20445;-67
2021/07/13 07:11:34;;;;;;;19.60;17.90;;;19.20;99.90;;;;;;5014501;28;20504;-67
2021/07/13 07:14:01;;;;;;;20.80;19.10;;;19.30;99.90;;;;;;5014652;28;20850;-67
2021/07/13 07:16:28;;;;;;;20.80;19.00;;;19.40;99.90;;;;;;5014554;28;20453;-67
2021/07/13 07:18:54;;;;;;;18.90;17.30;;;19.40;99.90;;;;;;5014643;28;20452;-67
2021/07/13 07:21:21;;;;;;;20.37;18.73;;;19.40;99.90;;;;;;5014477;28;20453;-67
2021/07/13 07:23:48;;;;;;;22.33;20.23;;;19.40;99.90;;;;;;5014464;28;20441;-67
2021/07/13 07:26:16;;;;;;;19.83;18.23;;;19.40;99.90;;;;;;5014573;28;20450;-67
2021/07/13 07:28:42;;;;;;;29.67;20.20;;;19.50;99.90;;;;;;5014176;28;20504;-67
2021/07/13 07:31:09;;;;;;;20.17;18.57;;;19.50;99.90;;;;;;5014119;28;20492;-67
2021/07/13 07:33:36;;;;;;;22.30;20.50;;;19.50;99.90;;;;;;5014485;28;20541;-68
2021/07/13 07:36:04;;;;;;;18.03;16.67;;;19.60;99.90;;;;;;5014304;28;20452;-67
2021/07/13 07:38:30;;;;;;;20.87;19.17;;;19.70;99.90;;;;;;5014202;28;20470;-68
2021/07/13 07:40:57;;;;;;;19.87;18.17;;;19.80;99.90;;;;;;5014259;28;20465;-67
2021/07/13 07:43:25;;;;;;;20.73;18.90;;;19.80;99.90;;;;;;5014071;28;20457;-68
2021/07/13 07:45:52;;;;;;;22.40;20.30;;;19.80;99.90;;;;;;5014175;28;20446;-68
2021/07/13 07:48:18;;;;;;;20.53;18.50;;;19.90;99.90;;;;;;5013954;28;20465;-67
2021/07/13 07:50:45;;;;;;;20.80;18.93;;;19.80;99.90;;;;;;5013948;28;20817;-67
2021/07/13 07:53:12;;;;;;;20.80;18.90;;;19.80;99.90;;;;;;5013854;28;20450;-67
2021/07/13 07:55:39;;;;;;;19.67;18.07;;;19.80;99.90;;;;;;5014018;28;20442;-67
2021/07/13 07:58:06;;;;;;;22.53;20.90;;;19.80;99.90;;;;;;5013748;28;20470;-67
2021/07/13 08:00:34;;;;;;;23.23;21.13;;;19.70;99.90;;;;;;5013851;28;20453;-67
2021/07/13 08:03:00;;;;;;;24.07;21.97;;;19.60;99.90;;;;;;5012678;28;20446;-68
2021/07/13 08:05:29;;;;;;;24.97;22.97;;;19.50;99.90;;;;;;5013709;28;20454;-67
2021/07/13 08:07:57;;;;;;;24.63;22.63;;;19.40;99.90;;;;;;5013560;28;20995;-67
2021/07/13 08:10:23;;;;;;;23.87;21.83;;;19.40;99.90;;;;;;5013607;28;20492;-67
2021/07/13 08:12:50;;;;;;;27.17;24.70;;;19.30;99.90;;;;;;5013347;28;20446;-67
2021/07/13 08:15:17;;;;;;;26.07;23.70;;;19.30;99.90;;;;;;5013639;28;20446;-67
2021/07/13 08:17:46;;;;;;;23.80;21.60;;;19.30;99.90;;;;;;5013373;28;21005;-67
2021/07/13 08:20:13;;;;;;;24.97;22.77;;;19.30;99.90;;;;;;5013544;28;20450;-68
2021/07/13 08:22:43;;;;;;;26.97;24.40;;;19.40;99.90;;;;;;5013291;28;20477;-68
2021/07/13 08:25:11;;;;;;;26.83;24.20;;;19.40;99.90;;;;;;5013498;28;20454;-67
2021/07/13 08:27:38;;;;;;;25.97;23.47;;;19.30;99.90;;;;;;5013231;28;20482;-67
2021/07/13 08:30:05;;;;;;;30.10;27.30;;;19.40;99.90;;;;;;5013208;28;20450;-68
2021/07/13 08:32:32;;;;;;;31.97;28.30;;;19.40;99.90;;;;;;5013151;28;20449;-68
2021/07/13 08:35:00;;;;;;;33.87;30.40;;;19.50;99.90;;;;;;5013076;28;20452;-68
2021/07/13 08:37:29;;;;;;;30.60;27.23;;;19.60;99.90;;;;;;5013035;28;20993;-68
2021/07/13 08:39:56;;;;;;;33.40;29.87;;;19.70;99.90;;;;;;5013096;28;20510;-68
2021/07/13 08:42:23;;;;;;;33.00;29.80;;;19.70;99.90;;;;;;5012924;28;20450;-68
2021/07/13 08:44:50;;;;;;;33.13;29.93;;;19.80;99.90;;;;;;5012951;28;20465;-68
2021/07/13 08:47:18;;;;;;;35.30;31.37;;;19.80;99.90;;;;;;5012901;28;20466;-68
2021/07/13 08:49:46;;;;;;;33.50;30.40;;;19.80;99.90;;;;;;5013108;28;20795;-68
2021/07/13 08:52:14;;;;;;;34.53;31.30;;;20.00;99.90;;;;;;5012606;28;20496;-68
2021/07/13 08:54:41;;;;;;;34.03;30.73;;;20.00;99.90;;;;;;5012898;28;20446;-68
2021/07/13 08:57:10;;;;;;;35.30;32.30;;;20.10;99.90;;;;;;5012797;28;20501;-68
2021/07/13 08:59:37;;;;;;;32.60;29.67;;;20.10;99.90;;;;;;5012808;28;20438;-68
2021/07/13 09:02:04;;;;;;;35.20;31.80;;;20.20;99.90;;;;;;5012405;28;20541;-68
2021/07/13 09:04:35;;;;;;;32.27;29.37;;;20.40;99.90;;;;;;5012751;28;20822;-68
2021/07/13 09:07:06;;;;;;;34.23;31.03;;;20.40;99.90;;;;;;5012523;28;20470;-68
2021/07/13 09:09:36;;;;;;;33.27;30.40;;;20.60;99.90;;;;;;5012529;28;20454;-68
2021/07/13 09:12:10;;;;;;;34.47;31.27;;;20.50;99.90;;;;;;5012152;28;20486;-68
2021/07/13 09:14:55;;;;;;;33.03;30.03;;;20.60;99.90;;;;;;5012321;28;20815;-68
2021/07/13 09:17:30;;;;;;;34.43;31.40;;;20.60;99.90;;;;;;5012522;28;20502;-68
2021/07/13 09:20:01;;;;;;;37.83;34.40;;;20.80;99.90;;;;;;5012594;28;20495;-68
2021/07/13 09:22:28;;;;;;;36.10;33.07;;;20.80;99.90;;;;;;5012035;28;20449;-68
2021/07/13 09:24:57;;;;;;;36.17;33.10;;;21.00;99.90;;;;;;5012302;28;20461;-67
2021/07/13 09:27:24;;;;;;;34.90;31.90;;;21.20;99.90;;;;;;5011958;28;20478;-68
2021/07/13 09:29:53;;;;;;;34.77;31.70;;;21.20;99.90;;;;;;5012182;28;20450;-68
2021/07/13 09:32:26;;;;;;;38.00;34.83;;;21.30;99.90;;;;;;5011859;28;20896;-68
2021/07/13 09:34:54;;;;;;;36.97;33.50;;;21.50;99.90;;;;;;5012332;28;20446;-68
2021/07/13 09:37:23;;;;;;;37.93;34.73;;;21.70;99.90;;;;;;5012033;28;20462;-68
2021/07/13 09:40:08;;;;;;;36.67;33.67;;;21.70;99.90;;;;;;5012120;28;20453;-67
2021/07/13 09:42:37;;;;;;;38.10;34.93;;;21.70;99.90;;;;;;5011863;28;20434;-68
2021/07/13 09:45:17;;;;;;;38.40;35.00;;;22.00;99.90;;;;;;5011817;28;20449;-68
2021/07/13 09:47:44;;;;;;;39.10;36.00;;;22.30;99.90;;;;;;5011803;28;20485;-68
2021/07/13 09:50:12;;;;;;;39.80;36.70;;;22.60;99.90;;;;;;5011931;28;20821;-68
2021/07/13 09:52:39;;;;;;;40.20;36.90;;;22.70;99.90;;;;;;5011866;28;20691;-68
2021/07/13 09:55:16;;;;;;;39.70;36.33;;;22.80;99.90;;;;;;5011887;28;20948;-68
2021/07/13 09:57:43;;;;;;;42.60;39.07;;;22.80;99.90;;;;;;5011891;28;20465;-67
2021/07/13 10:00:11;;;;;;;43.93;40.13;;;22.50;99.90;;;;;;5011912;28;20446;-67
2021/07/13 10:02:38;;;;;;;43.47;39.67;;;22.30;99.90;;;;;;5011585;28;20939;-67
2021/07/13 10:05:06;;;;;;;42.67;38.90;;;22.20;99.90;;;;;;5011749;28;20450;-67
2021/07/13 10:07:34;;;;;;;43.73;39.93;;;22.20;99.90;;;;;;5011511;28;20462;-67
2021/07/13 10:10:02;;;;;;;47.10;43.10;;;22.20;99.90;;;;;;5011635;28;20445;-67
2021/07/13 10:12:32;;;;;;;44.50;40.73;;;22.10;99.90;;;;;;5011446;28;20909;-67
2021/07/13 10:15:01;;;;;;;45.27;41.33;;;22.20;99.90;;;;;;5011608;28;20546;-67
2021/07/13 10:17:29;;;;;;;46.77;42.50;;;22.30;99.90;;;;;;5011574;28;21006;-67
2021/07/13 10:19:59;;;;;;;47.77;43.60;;;22.30;99.90;;;;;;5011620;28;20544;-67
2021/07/13 10:22:27;;;;;;;46.60;42.43;;;22.30;99.90;;;;;;5011362;28;20441;-67
2021/07/13 10:24:57;;;;;;;46.90;42.70;;;22.40;99.90;;;;;;5011676;28;20445;-67
2021/07/13 10:27:31;;;;;;;50.00;45.40;;;22.50;99.90;;;;;;5015304;28;20520;-68
2021/07/13 10:29:59;;;;;;;44.97;40.97;;;22.70;99.90;;;;;;5015602;28;20448;-67
2021/07/13 10:32:37;;;;;;;51.43;46.67;;;22.60;99.90;;;;;;5015268;28;20485;-68
2021/07/13 10:35:12;;;;;;;50.67;46.27;;;22.80;99.90;;;;;;5015420;28;20469;-68
2021/07/13 10:37:41;;;;;;;51.80;46.60;;;22.70;99.90;;;;;;5015348;28;20465;-68
2021/07/13 10:40:10;;;;;;;49.53;45.17;;;22.50;99.90;;;;;;5015376;28;20449;-68
2021/07/13 10:43:03;;;;;;;50.00;45.60;;;22.60;99.90;;;;;;5015071;28;20887;-68
2021/07/13 10:45:32;;;;;;;50.57;46.17;;;22.60;99.90;;;;;;5000958;28;20454;-68
2021/07/13 10:48:01;;;;;;;49.53;45.30;;;22.60;99.90;;;;;;5015390;28;20469;-67
2021/07/13 10:50:42;;;;;;;50.73;46.33;;;22.70;99.90;;;;;;5015090;28;20457;-68
2021/07/13 10:53:16;;;;;;;50.10;45.83;;;22.90;99.90;;;;;;5015012;28;20454;-68
2021/07/13 10:55:45;;;;;;;54.00;49.30;;;23.00;99.90;;;;;;5015104;28;20811;-68
2021/07/13 10:58:23;;;;;;;53.67;49.17;;;23.10;99.90;;;;;;5014922;28;20466;-68
2021/07/13 11:01:15;;;;;;;50.10;46.00;;;23.00;99.90;;;;;;5015032;28;20449;-68
2021/07/13 11:04:08;;;;;;;49.53;45.40;;;23.30;99.90;;;;;;5000606;28;20939;-68
2021/07/13 11:06:40;;;;;;;52.03;47.53;;;23.40;99.90;;;;;;5014833;28;20492;-68
2021/07/13 11:09:19;;;;;;;50.50;46.00;;;23.30;99.90;;;;;;5014693;28;20441;-68
2021/07/13 11:11:46;;;;;;;50.73;46.40;;;23.20;99.90;;;;;;5014546;28;20516;-68
2021/07/13 11:14:15;;;;;;;52.37;47.80;;;23.20;99.90;;;;;;5014859;28;20450;-67
2021/07/13 11:16:43;;;;;;;50.13;45.90;;;23.00;99.90;;;;;;5014494;28;20466;-68
2021/07/13 11:19:12;;;;;;;51.33;46.73;;;22.90;99.90;;;;;;5014692;28;20462;-68
2021/07/13 11:21:41;;;;;;;50.57;46.23;;;22.70;99.90;;;;;;5014548;28;20931;-68
2021/07/13 11:24:13;;;;;;;51.17;46.80;;;22.60;99.90;;;;;;5014650;28;20438;-68
2021/07/13 11:26:42;;;;;;;49.57;45.33;;;22.70;99.90;;;;;;5014329;28;20470;-68
2021/07/13 11:29:17;;;;;;;48.30;44.40;;;22.90;99.90;;;;;;5014405;28;20934;-68
2021/07/13 11:31:49;;;;;;;51.10;46.50;;;23.10;99.90;;;;;;5014162;28;20513;-68
2021/07/13 11:34:17;;;;;;;49.60;45.20;;;23.10;99.90;;;;;;5014467;28;20450;-68
2021/07/13 11:36:46;;;;;;;49.90;45.90;;;23.30;99.90;;;;;;5014208;28;20469;-68
2021/07/13 11:39:15;;;;;;;51.47;46.87;;;23.50;99.90;;;;;;5014091;28;20446;-68
2021/07/13 11:41:43;;;;;;;51.00;46.67;;;23.80;99.90;;;;;;5014017;28;20833;-68
2021/07/13 11:44:11;;;;;;;49.43;45.47;;;24.10;99.90;;;;;;5014067;28;20453;-68
2021/07/13 11:46:41;;;;;;;49.07;44.97;;;24.30;99.90;;;;;;5014050;28;20833;-68
2021/07/13 11:49:09;;;;;;;47.77;43.63;;;24.20;99.90;;;;;;5014018;28;20505;-68
2021/07/13 11:51:38;;;;;;;50.50;46.40;;;24.40;99.90;;;;;;5013691;28;20481;-68
2021/07/13 11:54:06;;;;;;;52.07;47.67;;;24.20;99.90;;;;;;5013896;28;20446;-68
2021/07/13 11:56:34;;;;;;;49.03;45.13;;;24.00;99.90;;;;;;5013922;28;20453;-68
2021/07/13 11:59:02;;;;;;;52.50;48.10;;;24.00;99.90;;;;;;5013953;28;20461;-68
2021/07/13 12:01:31;;;;;;;49.43;45.43;;;23.80;99.90;;;;;;5013819;28;20444;-68
2021/07/13 12:04:04;;;;;;;51.50;47.10;;;23.80;99.90;;;;;;5013861;28;20453;-68
2021/07/13 12:06:31;;;;;;;51.47;47.13;;;23.60;99.90;;;;;;5013641;28;20450;-68
2021/07/13 12:08:59;;;;;;;49.47;45.37;;;23.60;99.90;;;;;;5013622;28;20469;-68
2021/07/13 12:11:27;;;;;;;49.57;45.43;;;23.60;99.90;;;;;;5013349;28;20485;-68
2021/07/13 12:13:55;;;;;;;49.03;44.93;;;23.70;99.90;;;;;;5013655;28;20455;-68
2021/07/13 12:16:24;;;;;;;49.73;45.40;;;23.70;99.90;;;;;;5013510;28;20457;-68
2021/07/13 12:18:53;;;;;;;49.97;45.73;;;23.80;99.90;;;;;;5013512;28;20449;-68
2021/07/13 12:21:21;;;;;;;50.13;45.93;;;24.10;99.90;;;;;;5013232;28;20936;-68
2021/07/13 12:23:51;;;;;;;50.97;46.73;;;24.20;99.90;;;;;;5013309;28;20529;-68
2021/07/13 12:26:22;;;;;;;47.87;43.87;;;24.20;99.90;;;;;;5013426;28;20442;-68
2021/07/13 12:29:02;;;;;;;51.83;47.67;;;24.40;99.90;;;;;;5038001;22;20496;-67
2021/07/13 12:31:29;;;;;;;47.77;44.00;;;24.50;99.90;;;;;;5012981;28;20892;-67
2021/07/13 12:33:56;;;;;;;48.47;44.40;;;24.60;99.90;;;;;;5013294;28;20946;-67
2021/07/13 12:36:29;;;;;;;45.77;41.93;;;24.70;99.90;;;;;;5012962;28;20453;-68